aviador You're here:

KEHR Decoded Metar

HENDERSON CITY in KY, USA
Report Time2017-06-24 23:56:00
UTC Time2017-06-25 00:04:10
Flight Rules vfr VFR
Wind310° at 05 kt
W.Decomp.*RWY 27: 3.8 kt HW 3.3 kt RCW
W.Rank310° ranks 10
Current wind is below 310° avg. (8.1)
Visibility9999 m
Phenomena:N/A
Clouds:N/A
Expected CloudBase > 4,400 ft AGL from Temp-Dew spread
CeilingNone
Temp23°C (ISA +9)
Dew Point12°C (50% RH)
AAT21.8°C
QNH1019 hPa
Density Alt1,391 ft
Elevation384 ft
Report Wrong Elevation
Raw Report
METAR KEHR 242356Z AUTO 31005KT 10SM CLR 23/12 A3010 RMK AO2 SLP198
T02330122 10267 20233 53007=

Extra information for KEHR:More info

Metar Taf Metar & Taf Last 4 Metars F.Rules Stats Wind Profile Meteogram Temp Stats Airport Information Weather charts Add Link Nearby VenuesMetar ALERT Operation Metar Decoded Social comments

AIRNAV info for KEHR